sensor_id;sensor_type;location;lat;lon;timestamp;temperature;humidity
15257;DHT22;7731;50.720;6.912;2022-09-01T00:01:16;18.40;1.00
15257;DHT22;7731;50.720;6.912;2022-09-01T00:03:48;18.40;1.00
15257;DHT22;7731;50.720;6.912;2022-09-01T00:06:22;18.30;1.00
15257;DHT22;7731;50.720;6.912;2022-09-01T00:08:58;18.30;1.00
15257;DHT22;7731;50.720;6.912;2022-09-01T00:11:31;18.20;1.00
15257;DHT22;7731;50.720;6.912;2022-09-01T00:14:03;18.20;1.00
15257;DHT22;7731;50.720;6.912;2022-09-01T00:16:55;18.20;1.00
15257;DHT22;7731;50.720;6.912;2022-09-01T00:19:26;18.10;1.00
15257;DHT22;7731;50.720;6.912;2022-09-01T00:21:59;18.10;1.00
15257;DHT22;7731;50.720;6.912;2022-09-01T00:24:33;18.00;1.00
15257;DHT22;7731;50.720;6.912;2022-09-01T00:27:03;18.00;1.00
15257;DHT22;7731;50.720;6.912;2022-09-01T00:29:36;18.00;1.00
15257;DHT22;7731;50.720;6.912;2022-09-01T00:32:10;18.00;1.00
15257;DHT22;7731;50.720;6.912;2022-09-01T00:34:40;18.00;1.00
15257;DHT22;7731;50.720;6.912;2022-09-01T00:37:11;17.90;1.00
15257;DHT22;7731;50.720;6.912;2022-09-01T00:39:43;18.00;1.00
15257;DHT22;7731;50.720;6.912;2022-09-01T00:42:14;18.10;1.00
15257;DHT22;7731;50.720;6.912;2022-09-01T00:44:44;18.10;1.00
15257;DHT22;7731;50.720;6.912;2022-09-01T00:47:14;18.10;1.00
15257;DHT22;7731;50.720;6.912;2022-09-01T00:49:47;18.10;1.00
15257;DHT22;7731;50.720;6.912;2022-09-01T00:52:24;18.10;1.00
15257;DHT22;7731;50.720;6.912;2022-09-01T00:55:07;18.00;1.00
15257;DHT22;7731;50.720;6.912;2022-09-01T00:57:44;17.90;1.00
15257;DHT22;7731;50.720;6.912;2022-09-01T01:00:18;17.80;1.00
15257;DHT22;7731;50.720;6.912;2022-09-01T01:02:51;17.70;1.00
15257;DHT22;7731;50.720;6.912;2022-09-01T01:05:23;17.70;1.00
15257;DHT22;7731;50.720;6.912;2022-09-01T01:07:55;17.60;1.00
15257;DHT22;7731;50.720;6.912;2022-09-01T01:10:31;17.60;1.00
15257;DHT22;7731;50.720;6.912;2022-09-01T01:13:11;17.60;1.00
15257;DHT22;7731;50.720;6.912;2022-09-01T01:15:43;17.50;1.00
15257;DHT22;7731;50.720;6.912;2022-09-01T01:18:14;17.60;1.00
15257;DHT22;7731;50.720;6.912;2022-09-01T01:20:57;17.60;1.00
15257;DHT22;7731;50.720;6.912;2022-09-01T01:23:47;17.60;1.00
15257;DHT22;7731;50.720;6.912;2022-09-01T01:26:26;17.70;1.00
15257;DHT22;7731;50.720;6.912;2022-09-01T01:28:57;17.70;1.00
15257;DHT22;7731;50.720;6.912;2022-09-01T01:31:29;17.70;1.00
15257;DHT22;7731;50.720;6.912;2022-09-01T01:34:00;17.60;1.00
15257;DHT22;7731;50.720;6.912;2022-09-01T01:36:34;17.60;1.00
15257;DHT22;7731;50.720;6.912;2022-09-01T01:39:08;17.50;1.00
15257;DHT22;7731;50.720;6.912;2022-09-01T01:41:47;17.40;1.00
15257;DHT22;7731;50.720;6.912;2022-09-01T01:44:23;17.30;1.00
15257;DHT22;7731;50.720;6.912;2022-09-01T01:46:56;17.30;1.00
15257;DHT22;7731;50.720;6.912;2022-09-01T01:49:29;17.40;1.00
15257;DHT22;7731;50.720;6.912;2022-09-01T01:52:00;17.40;1.00
15257;DHT22;7731;50.720;6.912;2022-09-01T01:54:34;17.30;1.00
15257;DHT22;7731;50.720;6.912;2022-09-01T01:57:09;17.30;1.00
15257;DHT22;7731;50.720;6.912;2022-09-01T01:59:44;17.30;1.00
15257;DHT22;7731;50.720;6.912;2022-09-01T02:02:15;17.20;1.00
15257;DHT22;7731;50.720;6.912;2022-09-01T02:04:45;17.30;1.00
15257;DHT22;7731;50.720;6.912;2022-09-01T02:07:15;17.30;1.00
15257;DHT22;7731;50.720;6.912;2022-09-01T02:09:46;17.30;1.00
15257;DHT22;7731;50.720;6.912;2022-09-01T02:12:18;17.30;1.00
15257;DHT22;7731;50.720;6.912;2022-09-01T02:14:51;17.30;1.00
15257;DHT22;7731;50.720;6.912;2022-09-01T02:17:26;17.30;1.00
15257;DHT22;7731;50.720;6.912;2022-09-01T02:19:56;17.20;1.00
15257;DHT22;7731;50.720;6.912;2022-09-01T02:22:26;17.00;3.00
15257;DHT22;7731;50.720;6.912;2022-09-01T02:24:59;16.80;43.00
15257;DHT22;7731;50.720;6.912;2022-09-01T02:27:32;16.60;69.20
15257;DHT22;7731;50.720;6.912;2022-09-01T02:30:07;16.50;91.50
15257;DHT22;7731;50.720;6.912;2022-09-01T02:32:39;16.40;99.90
15257;DHT22;7731;50.720;6.912;2022-09-01T02:35:10;16.30;89.90
15257;DHT22;7731;50.720;6.912;2022-09-01T02:37:40;16.40;50.00
15257;DHT22;7731;50.720;6.912;2022-09-01T02:40:16;16.60;35.00
15257;DHT22;7731;50.720;6.912;2022-09-01T02:42:49;16.70;30.00
15257;DHT22;7731;50.720;6.912;2022-09-01T02:45:20;16.70;25.30
15257;DHT22;7731;50.720;6.912;2022-09-01T02:47:50;16.80;16.20
15257;DHT22;7731;50.720;6.912;2022-09-01T02:50:24;16.90;10.60
15257;DHT22;7731;50.720;6.912;2022-09-01T02:52:55;17.00;8.70
15257;DHT22;7731;50.720;6.912;2022-09-01T02:55:30;17.00;7.70
15257;DHT22;7731;50.720;6.912;2022-09-01T02:58:03;16.90;10.50
15257;DHT22;7731;50.720;6.912;2022-09-01T03:00:38;17.00;11.70
15257;DHT22;7731;50.720;6.912;2022-09-01T03:03:10;16.90;12.90
15257;DHT22;7731;50.720;6.912;2022-09-01T03:05:43;16.90;20.90
15257;DHT22;7731;50.720;6.912;2022-09-01T03:08:13;16.80;29.50
15257;DHT22;7731;50.720;6.912;2022-09-01T03:10:45;16.60;65.10
15257;DHT22;7731;50.720;6.912;2022-09-01T03:13:21;16.50;78.00
15257;DHT22;7731;50.720;6.912;2022-09-01T03:15:55;16.30;95.20
15257;DHT22;7731;50.720;6.912;2022-09-01T03:18:25;16.30;98.90
15257;DHT22;7731;50.720;6.912;2022-09-01T03:20:55;16.30;92.70
15257;DHT22;7731;50.720;6.912;2022-09-01T03:23:25;16.30;97.20
15257;DHT22;7731;50.720;6.912;2022-09-01T03:25:57;16.20;99.90
15257;DHT22;7731;50.720;6.912;2022-09-01T03:28:30;16.00;99.90
15257;DHT22;7731;50.720;6.912;2022-09-01T03:31:00;15.70;99.90
15257;DHT22;7731;50.720;6.912;2022-09-01T03:33:30;15.50;99.90
15257;DHT22;7731;50.720;6.912;2022-09-01T03:36:03;15.40;99.90
15257;DHT22;7731;50.720;6.912;2022-09-01T03:38:41;15.30;99.90
15257;DHT22;7731;50.720;6.912;2022-09-01T03:41:16;15.20;99.90
15257;DHT22;7731;50.720;6.912;2022-09-01T03:43:54;15.10;99.90
15257;DHT22;7731;50.720;6.912;2022-09-01T03:46:26;15.10;99.90
15257;DHT22;7731;50.720;6.912;2022-09-01T03:49:03;15.00;99.90
15257;DHT22;7731;50.720;6.912;2022-09-01T03:51:39;14.90;99.90
15257;DHT22;7731;50.720;6.912;2022-09-01T03:54:11;14.80;99.90
15257;DHT22;7731;50.720;6.912;2022-09-01T03:56:43;14.70;99.90
15257;DHT22;7731;50.720;6.912;2022-09-01T03:59:19;14.60;99.90
15257;DHT22;7731;50.720;6.912;2022-09-01T04:01:52;14.60;99.90
15257;DHT22;7731;50.720;6.912;2022-09-01T04:04:24;14.50;99.90
15257;DHT22;7731;50.720;6.912;2022-09-01T04:06:57;14.50;99.90
15257;DHT22;7731;50.720;6.912;2022-09-01T04:09:28;14.30;99.90
15257;DHT22;7731;50.720;6.912;2022-09-01T04:12:03;14.20;99.90
15257;DHT22;7731;50.720;6.912;2022-09-01T04:14:39;14.10;99.90
15257;DHT22;7731;50.720;6.912;2022-09-01T04:17:12;14.10;99.90
15257;DHT22;7731;50.720;6.912;2022-09-01T04:19:56;14.00;99.90
15257;DHT22;7731;50.720;6.912;2022-09-01T04:22:35;13.90;99.90
15257;DHT22;7731;50.720;6.912;2022-09-01T04:25:08;13.90;99.90
15257;DHT22;7731;50.720;6.912;2022-09-01T04:27:39;13.90;99.90
15257;DHT22;7731;50.720;6.912;2022-09-01T04:30:13;14.00;99.90
15257;DHT22;7731;50.720;6.912;2022-09-01T04:32:43;14.10;99.90
15257;DHT22;7731;50.720;6.912;2022-09-01T04:35:13;14.20;99.90
15257;DHT22;7731;50.720;6.912;2022-09-01T04:37:44;14.30;99.90
15257;DHT22;7731;50.720;6.912;2022-09-01T04:40:16;14.30;99.90
15257;DHT22;7731;50.720;6.912;2022-09-01T04:42:53;14.30;99.90
15257;DHT22;7731;50.720;6.912;2022-09-01T04:45:26;14.20;99.90
15257;DHT22;7731;50.720;6.912;2022-09-01T04:47:57;14.20;99.90
15257;DHT22;7731;50.720;6.912;2022-09-01T04:50:29;14.20;99.90
15257;DHT22;7731;50.720;6.912;2022-09-01T04:53:02;14.10;99.90
15257;DHT22;7731;50.720;6.912;2022-09-01T04:55:38;14.10;99.90
15257;DHT22;7731;50.720;6.912;2022-09-01T04:58:11;13.90;99.90
15257;DHT22;7731;50.720;6.912;2022-09-01T05:00:48;13.90;99.90
15257;DHT22;7731;50.720;6.912;2022-09-01T05:03:24;13.90;99.90
15257;DHT22;7731;50.720;6.912;2022-09-01T05:05:57;13.90;99.90
15257;DHT22;7731;50.720;6.912;2022-09-01T05:08:31;13.90;99.90
15257;DHT22;7731;50.720;6.912;2022-09-01T05:11:03;14.00;99.90
15257;DHT22;7731;50.720;6.912;2022-09-01T05:13:35;14.00;99.90
15257;DHT22;7731;50.720;6.912;2022-09-01T05:16:11;14.00;99.90
15257;DHT22;7731;50.720;6.912;2022-09-01T05:18:49;14.00;99.90
15257;DHT22;7731;50.720;6.912;2022-09-01T05:21:23;14.00;99.90
15257;DHT22;7731;50.720;6.912;2022-09-01T05:23:57;14.10;99.90
15257;DHT22;7731;50.720;6.912;2022-09-01T05:26:32;14.10;99.90
15257;DHT22;7731;50.720;6.912;2022-09-01T05:29:08;14.10;99.90
15257;DHT22;7731;50.720;6.912;2022-09-01T05:31:43;14.20;99.90
15257;DHT22;7731;50.720;6.912;2022-09-01T05:34:18;14.20;99.90
15257;DHT22;7731;50.720;6.912;2022-09-01T05:36:56;14.20;99.90
15257;DHT22;7731;50.720;6.912;2022-09-01T05:39:28;14.30;99.90
15257;DHT22;7731;50.720;6.912;2022-09-01T05:41:58;14.40;99.90
15257;DHT22;7731;50.720;6.912;2022-09-01T05:44:34;14.50;99.90
15257;DHT22;7731;50.720;6.912;2022-09-01T05:47:08;14.60;99.90
15257;DHT22;7731;50.720;6.912;2022-09-01T05:49:48;14.50;99.90
15257;DHT22;7731;50.720;6.912;2022-09-01T05:52:19;14.60;99.90
15257;DHT22;7731;50.720;6.912;2022-09-01T05:54:53;14.50;99.90
15257;DHT22;7731;50.720;6.912;2022-09-01T05:57:26;14.60;99.90
15257;DHT22;7731;50.720;6.912;2022-09-01T06:00:06;14.60;99.90
15257;DHT22;7731;50.720;6.912;2022-09-01T06:02:42;14.60;99.90
15257;DHT22;7731;50.720;6.912;2022-09-01T06:05:15;14.50;99.90
15257;DHT22;7731;50.720;6.912;2022-09-01T06:07:45;14.60;99.90
15257;DHT22;7731;50.720;6.912;2022-09-01T06:10:16;14.60;99.90
15257;DHT22;7731;50.720;6.912;2022-09-01T06:12:47;14.90;99.90
15257;DHT22;7731;50.720;6.912;2022-09-01T06:15:20;15.00;99.90
15257;DHT22;7731;50.720;6.912;2022-09-01T06:17:53;15.10;99.90
15257;DHT22;7731;50.720;6.912;2022-09-01T06:20:24;15.20;99.90
15257;DHT22;7731;50.720;6.912;2022-09-01T06:22:56;15.30;99.90
15257;DHT22;7731;50.720;6.912;2022-09-01T06:25:26;15.50;99.90
15257;DHT22;7731;50.720;6.912;2022-09-01T06:27:57;15.50;99.90
15257;DHT22;7731;50.720;6.912;2022-09-01T06:30:30;15.50;99.90
15257;DHT22;7731;50.720;6.912;2022-09-01T06:33:05;15.70;99.90
15257;DHT22;7731;50.720;6.912;2022-09-01T06:35:37;15.80;99.90
15257;DHT22;7731;50.720;6.912;2022-09-01T06:38:09;15.90;99.90
15257;DHT22;7731;50.720;6.912;2022-09-01T06:40:43;16.10;99.90
15257;DHT22;7731;50.720;6.912;2022-09-01T06:43:17;16.30;99.90
15257;DHT22;7731;50.720;6.912;2022-09-01T06:45:49;16.40;99.90
15257;DHT22;7731;50.720;6.912;2022-09-01T06:48:23;16.70;98.20
15257;DHT22;7731;50.720;6.912;2022-09-01T06:50:53;17.00;88.90
15257;DHT22;7731;50.720;6.912;2022-09-01T06:53:45;17.20;67.40
15257;DHT22;7731;50.720;6.912;2022-09-01T06:56:24;17.90;9.10
15257;DHT22;7731;50.720;6.912;2022-09-01T06:59:07;18.00;1.00
15257;DHT22;7731;50.720;6.912;2022-09-01T07:01:41;18.20;1.00
15257;DHT22;7731;50.720;6.912;2022-09-01T07:04:14;18.20;1.00
15257;DHT22;7731;50.720;6.912;2022-09-01T07:06:51;18.60;1.00
15257;DHT22;7731;50.720;6.912;2022-09-01T07:09:41;18.90;1.00
15257;DHT22;7731;50.720;6.912;2022-09-01T07:12:33;19.30;1.00
15257;DHT22;7731;50.720;6.912;2022-09-01T07:15:27;19.50;1.00
15257;DHT22;7731;50.720;6.912;2022-09-01T07:18:19;19.90;1.00
15257;DHT22;7731;50.720;6.912;2022-09-01T07:20:54;20.20;1.00
15257;DHT22;7731;50.720;6.912;2022-09-01T07:23:34;21.50;79.20
15257;DHT22;7731;50.720;6.912;2022-09-01T07:26:26;24.80;95.30
15257;DHT22;7731;50.720;6.912;2022-09-01T07:28:57;27.10;1.00
15257;DHT22;7731;50.720;6.912;2022-09-01T07:31:50;28.90;1.00
15257;DHT22;7731;50.720;6.912;2022-09-01T07:34:42;30.30;99.90
15257;DHT22;7731;50.720;6.912;2022-09-01T07:37:18;32.00;99.90
15257;DHT22;7731;50.720;6.912;2022-09-01T07:40:11;32.40;99.90
15257;DHT22;7731;50.720;6.912;2022-09-01T07:43:11;32.90;99.90
15257;DHT22;7731;50.720;6.912;2022-09-01T07:45:50;34.20;99.90
15257;DHT22;7731;50.720;6.912;2022-09-01T07:48:27;33.80;99.90
15257;DHT22;7731;50.720;6.912;2022-09-01T07:51:20;33.60;99.90
15257;DHT22;7731;50.720;6.912;2022-09-01T07:54:10;33.30;99.90
15257;DHT22;7731;50.720;6.912;2022-09-01T07:56:40;33.10;99.90
15257;DHT22;7731;50.720;6.912;2022-09-01T07:59:11;33.80;99.90
15257;DHT22;7731;50.720;6.912;2022-09-01T08:01:41;33.00;99.90
15257;DHT22;7731;50.720;6.912;2022-09-01T08:04:13;32.80;99.90
15257;DHT22;7731;50.720;6.912;2022-09-01T08:06:49;31.30;99.90
15257;DHT22;7731;50.720;6.912;2022-09-01T08:09:23;30.90;99.90
15257;DHT22;7731;50.720;6.912;2022-09-01T08:12:04;33.00;99.90
15257;DHT22;7731;50.720;6.912;2022-09-01T08:14:35;34.60;99.90
15257;DHT22;7731;50.720;6.912;2022-09-01T08:17:05;34.40;99.90
15257;DHT22;7731;50.720;6.912;2022-09-01T08:19:56;33.80;99.90
15257;DHT22;7731;50.720;6.912;2022-09-01T08:22:27;34.50;99.90
15257;DHT22;7731;50.720;6.912;2022-09-01T08:25:05;34.50;99.90
15257;DHT22;7731;50.720;6.912;2022-09-01T08:27:37;35.90;99.90
15257;DHT22;7731;50.720;6.912;2022-09-01T08:30:10;34.50;99.90
15257;DHT22;7731;50.720;6.912;2022-09-01T08:32:41;34.20;99.90
15257;DHT22;7731;50.720;6.912;2022-09-01T08:35:13;33.80;99.90
15257;DHT22;7731;50.720;6.912;2022-09-01T08:37:43;33.70;99.90
15257;DHT22;7731;50.720;6.912;2022-09-01T08:40:18;34.70;99.90
15257;DHT22;7731;50.720;6.912;2022-09-01T08:43:01;34.90;99.90
15257;DHT22;7731;50.720;6.912;2022-09-01T08:45:47;35.00;99.90
15257;DHT22;7731;50.720;6.912;2022-09-01T08:48:26;35.40;99.90
15257;DHT22;7731;50.720;6.912;2022-09-01T08:51:30;34.30;99.90
15257;DHT22;7731;50.720;6.912;2022-09-01T08:54:15;34.40;99.90
15257;DHT22;7731;50.720;6.912;2022-09-01T08:57:04;34.90;99.90
15257;DHT22;7731;50.720;6.912;2022-09-01T08:59:37;35.00;99.90
15257;DHT22;7731;50.720;6.912;2022-09-01T09:02:19;35.10;99.90
15257;DHT22;7731;50.720;6.912;2022-09-01T09:05:02;35.10;99.90
15257;DHT22;7731;50.720;6.912;2022-09-01T09:07:53;35.00;99.90
15257;DHT22;7731;50.720;6.912;2022-09-01T09:10:42;35.10;99.90
15257;DHT22;7731;50.720;6.912;2022-09-01T09:13:34;35.70;99.90
15257;DHT22;7731;50.720;6.912;2022-09-01T09:16:20;36.50;99.90
15257;DHT22;7731;50.720;6.912;2022-09-01T09:18:57;34.20;99.90
15257;DHT22;7731;50.720;6.912;2022-09-01T09:21:34;35.50;99.90
15257;DHT22;7731;50.720;6.912;2022-09-01T09:24:11;35.70;99.90
15257;DHT22;7731;50.720;6.912;2022-09-01T09:26:49;35.60;99.90
15257;DHT22;7731;50.720;6.912;2022-09-01T09:29:23;35.30;99.90
15257;DHT22;7731;50.720;6.912;2022-09-01T09:32:03;33.50;1.00
15257;DHT22;7731;50.720;6.912;2022-09-01T09:34:56;35.00;1.00
15257;DHT22;7731;50.720;6.912;2022-09-01T09:37:47;34.50;1.00
15257;DHT22;7731;50.720;6.912;2022-09-01T09:40:19;33.90;1.00
15257;DHT22;7731;50.720;6.912;2022-09-01T09:43:02;34.10;1.00
15257;DHT22;7731;50.720;6.912;2022-09-01T09:45:39;35.20;1.00
15257;DHT22;7731;50.720;6.912;2022-09-01T09:48:26;35.50;1.00
15257;DHT22;7731;50.720;6.912;2022-09-01T09:51:15;35.10;1.00
15257;DHT22;7731;50.720;6.912;2022-09-01T09:53:49;33.80;1.00
15257;DHT22;7731;50.720;6.912;2022-09-01T09:56:22;33.20;1.00
15257;DHT22;7731;50.720;6.912;2022-09-01T09:58:55;33.10;1.00
15257;DHT22;7731;50.720;6.912;2022-09-01T10:01:30;33.70;1.00
15257;DHT22;7731;50.720;6.912;2022-09-01T10:04:01;33.80;1.00
15257;DHT22;7731;50.720;6.912;2022-09-01T10:06:35;34.70;1.00
15257;DHT22;7731;50.720;6.912;2022-09-01T10:09:33;34.30;1.00
15257;DHT22;7731;50.720;6.912;2022-09-01T10:12:08;33.20;1.00
15257;DHT22;7731;50.720;6.912;2022-09-01T10:14:42;32.90;1.00
15257;DHT22;7731;50.720;6.912;2022-09-01T10:17:25;33.50;1.00
15257;DHT22;7731;50.720;6.912;2022-09-01T10:20:05;34.40;1.00
15257;DHT22;7731;50.720;6.912;2022-09-01T10:22:39;34.10;1.00
15257;DHT22;7731;50.720;6.912;2022-09-01T10:25:20;33.30;1.00
15257;DHT22;7731;50.720;6.912;2022-09-01T10:28:04;32.20;1.00
15257;DHT22;7731;50.720;6.912;2022-09-01T10:30:47;31.90;1.00
15257;DHT22;7731;50.720;6.912;2022-09-01T10:33:21;32.80;1.00
15257;DHT22;7731;50.720;6.912;2022-09-01T10:35:53;33.00;1.00
15257;DHT22;7731;50.720;6.912;2022-09-01T10:38:27;31.60;1.00
15257;DHT22;7731;50.720;6.912;2022-09-01T10:40:59;30.60;1.00
15257;DHT22;7731;50.720;6.912;2022-09-01T10:43:43;31.10;1.00
15257;DHT22;7731;50.720;6.912;2022-09-01T10:46:42;31.50;1.00
15257;DHT22;7731;50.720;6.912;2022-09-01T10:52:55;33.40;1.00
15257;DHT22;7731;50.720;6.912;2022-09-01T10:55:37;32.50;1.00
15257;DHT22;7731;50.720;6.912;2022-09-01T10:58:35;31.90;1.00
15257;DHT22;7731;50.720;6.912;2022-09-01T11:05:20;30.40;1.00
15257;DHT22;7731;50.720;6.912;2022-09-01T11:07:50;29.30;1.00
15257;DHT22;7731;50.720;6.912;2022-09-01T11:10:49;28.90;1.00
15257;DHT22;7731;50.720;6.912;2022-09-01T11:13:34;28.60;1.00
15257;DHT22;7731;50.720;6.912;2022-09-01T11:16:31;28.30;1.00
15257;DHT22;7731;50.720;6.912;2022-09-01T11:19:33;28.30;1.00
15257;DHT22;7731;50.720;6.912;2022-09-01T11:22:29;29.30;1.00
15257;DHT22;7731;50.720;6.912;2022-09-01T11:31:20;29.40;1.00
15257;DHT22;7731;50.720;6.912;2022-09-01T11:34:11;28.90;1.00
15257;DHT22;7731;50.720;6.912;2022-09-01T11:36:58;29.00;1.00
15257;DHT22;7731;50.720;6.912;2022-09-01T11:39:48;28.30;1.00
15257;DHT22;7731;50.720;6.912;2022-09-01T11:42:23;27.60;1.00
15257;DHT22;7731;50.720;6.912;2022-09-01T11:45:00;26.70;1.00
15257;DHT22;7731;50.720;6.912;2022-09-01T11:47:38;27.10;1.00
15257;DHT22;7731;50.720;6.912;2022-09-01T11:50:19;27.40;1.00
15257;DHT22;7731;50.720;6.912;2022-09-01T11:52:55;27.30;1.00
15257;DHT22;7731;50.720;6.912;2022-09-01T11:55:35;26.90;1.00
15257;DHT22;7731;50.720;6.912;2022-09-01T11:58:10;27.00;1.00
15257;DHT22;7731;50.720;6.912;2022-09-01T12:00:44;27.30;1.00
15257;DHT22;7731;50.720;6.912;2022-09-01T12:03:20;28.20;1.00
15257;DHT22;7731;50.720;6.912;2022-09-01T12:05:55;28.80;1.00
15257;DHT22;7731;50.720;6.912;2022-09-01T12:08:31;29.10;1.00
15257;DHT22;7731;50.720;6.912;2022-09-01T12:11:10;29.10;1.00
15257;DHT22;7731;50.720;6.912;2022-09-01T12:13:58;28.70;1.00
15257;DHT22;7731;50.720;6.912;2022-09-01T12:16:38;28.50;1.00
15257;DHT22;7731;50.720;6.912;2022-09-01T12:19:22;28.00;1.00
15257;DHT22;7731;50.720;6.912;2022-09-01T12:22:00;28.50;1.00
15257;DHT22;7731;50.720;6.912;2022-09-01T12:24:34;28.70;1.00
15257;DHT22;7731;50.720;6.912;2022-09-01T12:27:15;28.70;1.00
15257;DHT22;7731;50.720;6.912;2022-09-01T12:29:46;28.90;1.00
15257;DHT22;7731;50.720;6.912;2022-09-01T12:32:17;28.50;1.00
15257;DHT22;7731;50.720;6.912;2022-09-01T12:34:59;28.10;1.00
15257;DHT22;7731;50.720;6.912;2022-09-01T12:37:37;27.70;1.00
15257;DHT22;7731;50.720;6.912;2022-09-01T12:40:24;27.30;1.00
15257;DHT22;7731;50.720;6.912;2022-09-01T12:43:06;27.20;1.00
15257;DHT22;7731;50.720;6.912;2022-09-01T12:45:41;27.10;1.00
15257;DHT22;7731;50.720;6.912;2022-09-01T12:48:24;27.10;1.00
15257;DHT22;7731;50.720;6.912;2022-09-01T12:51:00;26.90;1.00
15257;DHT22;7731;50.720;6.912;2022-09-01T12:53:35;26.90;1.00
15257;DHT22;7731;50.720;6.912;2022-09-01T12:56:29;27.00;1.00
15257;DHT22;7731;50.720;6.912;2022-09-01T12:59:11;27.40;1.00
15257;DHT22;7731;50.720;6.912;2022-09-01T13:01:51;27.60;1.00
15257;DHT22;7731;50.720;6.912;2022-09-01T13:04:29;27.60;1.00
15257;DHT22;7731;50.720;6.912;2022-09-01T13:07:02;27.90;1.00
15257;DHT22;7731;50.720;6.912;2022-09-01T13:09:36;28.00;1.00
15257;DHT22;7731;50.720;6.912;2022-09-01T13:12:16;28.00;1.00
15257;DHT22;7731;50.720;6.912;2022-09-01T13:14:53;27.80;1.00
15257;DHT22;7731;50.720;6.912;2022-09-01T13:17:23;28.10;1.00
15257;DHT22;7731;50.720;6.912;2022-09-01T13:19:53;28.40;1.00
15257;DHT22;7731;50.720;6.912;2022-09-01T13:22:23;28.50;1.00
15257;DHT22;7731;50.720;6.912;2022-09-01T13:24:54;28.30;1.00
15257;DHT22;7731;50.720;6.912;2022-09-01T13:27:24;28.00;1.00
15257;DHT22;7731;50.720;6.912;2022-09-01T13:29:57;27.80;1.00
15257;DHT22;7731;50.720;6.912;2022-09-01T13:32:27;27.10;1.00
15257;DHT22;7731;50.720;6.912;2022-09-01T13:34:57;26.70;1.00
15257;DHT22;7731;50.720;6.912;2022-09-01T13:37:28;26.50;1.00
15257;DHT22;7731;50.720;6.912;2022-09-01T13:39:59;26.70;1.00
15257;DHT22;7731;50.720;6.912;2022-09-01T13:42:29;26.90;1.00
15257;DHT22;7731;50.720;6.912;2022-09-01T13:45:02;27.40;1.00
15257;DHT22;7731;50.720;6.912;2022-09-01T13:47:33;27.30;1.00
15257;DHT22;7731;50.720;6.912;2022-09-01T13:50:23;27.30;1.00
15257;DHT22;7731;50.720;6.912;2022-09-01T13:53:14;27.00;1.00
15257;DHT22;7731;50.720;6.912;2022-09-01T13:55:45;26.80;1.00
15257;DHT22;7731;50.720;6.912;2022-09-01T13:58:16;26.80;1.00
15257;DHT22;7731;50.720;6.912;2022-09-01T14:00:49;26.70;1.00
15257;DHT22;7731;50.720;6.912;2022-09-01T14:03:22;26.60;1.00
15257;DHT22;7731;50.720;6.912;2022-09-01T14:05:58;26.50;1.00
15257;DHT22;7731;50.720;6.912;2022-09-01T14:08:28;26.70;1.00
15257;DHT22;7731;50.720;6.912;2022-09-01T14:10:59;26.80;1.00
15257;DHT22;7731;50.720;6.912;2022-09-01T14:13:30;26.90;1.00
15257;DHT22;7731;50.720;6.912;2022-09-01T14:16:09;27.10;1.00
15257;DHT22;7731;50.720;6.912;2022-09-01T14:18:40;27.40;1.00
15257;DHT22;7731;50.720;6.912;2022-09-01T14:21:12;27.50;1.00
15257;DHT22;7731;50.720;6.912;2022-09-01T14:23:44;27.40;1.00
15257;DHT22;7731;50.720;6.912;2022-09-01T14:26:15;27.50;1.00
15257;DHT22;7731;50.720;6.912;2022-09-01T14:28:47;27.30;1.00
15257;DHT22;7731;50.720;6.912;2022-09-01T14:31:20;27.10;1.00
15257;DHT22;7731;50.720;6.912;2022-09-01T14:33:50;27.10;1.00
15257;DHT22;7731;50.720;6.912;2022-09-01T14:36:22;26.90;1.00
15257;DHT22;7731;50.720;6.912;2022-09-01T14:38:55;26.80;1.00
15257;DHT22;7731;50.720;6.912;2022-09-01T14:41:25;26.60;1.00
15257;DHT22;7731;50.720;6.912;2022-09-01T14:43:58;26.40;1.00
15257;DHT22;7731;50.720;6.912;2022-09-01T14:46:33;26.30;1.00
15257;DHT22;7731;50.720;6.912;2022-09-01T14:49:04;26.20;1.00
15257;DHT22;7731;50.720;6.912;2022-09-01T14:51:37;26.00;1.00
15257;DHT22;7731;50.720;6.912;2022-09-01T14:54:27;25.90;1.00
15257;DHT22;7731;50.720;6.912;2022-09-01T14:56:58;25.70;1.00
15257;DHT22;7731;50.720;6.912;2022-09-01T14:59:49;25.80;1.00
15257;DHT22;7731;50.720;6.912;2022-09-01T15:02:22;25.90;1.00
15257;DHT22;7731;50.720;6.912;2022-09-01T15:04:55;26.20;1.00
15257;DHT22;7731;50.720;6.912;2022-09-01T15:07:25;26.60;1.00
15257;DHT22;7731;50.720;6.912;2022-09-01T15:09:56;26.90;1.00
15257;DHT22;7731;50.720;6.912;2022-09-01T15:12:26;27.20;1.00
15257;DHT22;7731;50.720;6.912;2022-09-01T15:14:58;27.50;1.00
15257;DHT22;7731;50.720;6.912;2022-09-01T15:17:32;27.60;1.00
15257;DHT22;7731;50.720;6.912;2022-09-01T15:20:07;27.70;1.00
15257;DHT22;7731;50.720;6.912;2022-09-01T15:22:50;27.70;1.00
15257;DHT22;7731;50.720;6.912;2022-09-01T15:25:23;27.40;1.00
15257;DHT22;7731;50.720;6.912;2022-09-01T15:27:53;27.00;1.00
15257;DHT22;7731;50.720;6.912;2022-09-01T15:30:24;26.50;1.00
15257;DHT22;7731;50.720;6.912;2022-09-01T15:33:03;26.30;1.00
15257;DHT22;7731;50.720;6.912;2022-09-01T15:35:40;26.20;1.00
15257;DHT22;7731;50.720;6.912;2022-09-01T15:38:11;26.00;1.00
15257;DHT22;7731;50.720;6.912;2022-09-01T15:40:45;25.90;1.00
15257;DHT22;7731;50.720;6.912;2022-09-01T15:43:25;25.80;1.00
15257;DHT22;7731;50.720;6.912;2022-09-01T15:45:57;25.80;1.00
15257;DHT22;7731;50.720;6.912;2022-09-01T15:48:33;26.00;1.00
15257;DHT22;7731;50.720;6.912;2022-09-01T15:51:26;26.10;1.00
15257;DHT22;7731;50.720;6.912;2022-09-01T15:54:00;26.10;1.00
15257;DHT22;7731;50.720;6.912;2022-09-01T15:56:32;26.10;1.00
15257;DHT22;7731;50.720;6.912;2022-09-01T15:59:04;26.00;1.00
15257;DHT22;7731;50.720;6.912;2022-09-01T16:01:37;25.80;1.00
15257;DHT22;7731;50.720;6.912;2022-09-01T16:04:14;25.80;1.00
15257;DHT22;7731;50.720;6.912;2022-09-01T16:06:53;25.80;1.00
15257;DHT22;7731;50.720;6.912;2022-09-01T16:09:24;25.80;1.00
15257;DHT22;7731;50.720;6.912;2022-09-01T16:11:56;25.80;1.00
15257;DHT22;7731;50.720;6.912;2022-09-01T16:14:27;25.80;1.00
15257;DHT22;7731;50.720;6.912;2022-09-01T16:17:02;26.00;1.00
15257;DHT22;7731;50.720;6.912;2022-09-01T16:19:47;26.20;1.00
15257;DHT22;7731;50.720;6.912;2022-09-01T16:22:27;26.20;1.00
15257;DHT22;7731;50.720;6.912;2022-09-01T16:25:01;26.00;1.00
15257;DHT22;7731;50.720;6.912;2022-09-01T16:27:41;26.10;1.00
15257;DHT22;7731;50.720;6.912;2022-09-01T16:30:14;26.10;1.00
15257;DHT22;7731;50.720;6.912;2022-09-01T16:32:48;26.00;1.00
15257;DHT22;7731;50.720;6.912;2022-09-01T16:35:29;25.90;1.00
15257;DHT22;7731;50.720;6.912;2022-09-01T16:38:17;25.80;1.00
15257;DHT22;7731;50.720;6.912;2022-09-01T16:41:02;25.60;1.00
15257;DHT22;7731;50.720;6.912;2022-09-01T16:43:47;25.50;1.00
15257;DHT22;7731;50.720;6.912;2022-09-01T16:46:28;25.50;1.00
15257;DHT22;7731;50.720;6.912;2022-09-01T16:49:09;25.30;1.00
15257;DHT22;7731;50.720;6.912;2022-09-01T16:51:57;25.30;1.00
15257;DHT22;7731;50.720;6.912;2022-09-01T16:54:42;25.30;1.00
15257;DHT22;7731;50.720;6.912;2022-09-01T16:57:34;25.20;1.00
15257;DHT22;7731;50.720;6.912;2022-09-01T17:00:22;24.90;1.00
15257;DHT22;7731;50.720;6.912;2022-09-01T17:03:06;24.80;1.00
15257;DHT22;7731;50.720;6.912;2022-09-01T17:05:54;24.70;1.00
15257;DHT22;7731;50.720;6.912;2022-09-01T17:08:32;24.50;1.00